Main page
METAR-TAF:

METAR-TAF

Airports :

Ghedi Air Base

Brescia Ghedi, Italy

latitude: 45-25N, longitude: 010-17E, elevation: 102 m

Current weather observation

The report was made 1 hour and 34 minutes ago, at 15:55 UTC
Wind 1 kt from the Southwest
Temperature 5°C
Humidity 100%
Pressure 1022 hPa
Visibility: 1200 m
Scattered clouds at a height of 2000 ft
Broken clouds at a height of 3000 ft
light drizzle, mist

METAR: LIPL 251555Z 23001KT 1200 R31/P2000N -DZ BR SCT020 BKN030 05/05 Q1022 RMK OVC VIS MIN 1200 WIND THR31 /////KT WIND THR13 24002KT AMB

Time: 18:29 (17:29 UTC)

Forecast

The report was made 3 hours and 29 minutes ago, at 14:00 UTC
Forecast valid from 25 at 15 UTC to 25 at 24 UTC
Wind 4 kt from the West/Southwest
Visibility: 5000 m
Scattered clouds at a height of 1500 ft
Broken clouds at a height of 3000 ft
mist
Temporary
from 25 at 15 UTC to 25 at 24 UTC
Visibility: 1500 m
rain, mist

TAF: LIPL 251400Z 2515/2524 24004KT 5000 BR SCT015 BKN030 TEMPO 2515/2524 1500 RA BR

Weather observations and forecasts of more than 4000 airports (METAR and TAF reports).

The available stations are represented by yellow and red dots on the map.

Hover mouse over dot to see the name of the station.

Then click to see weather observations and forecasts.

To change the map : click on the green buttons with a black cross to zoom in, on the green button with a dash to zoom out, or on the green arrows for adjacent maps.


METAR-TAF: